sensor_id;sensor_type;location;lat;lon;timestamp;P1;durP1;ratioP1;P2;durP2;ratioP2
73487;SDS011;61721;42.206;25.320;2023-03-17T00:15:40;7.18;;;3.95;;
73487;SDS011;61721;42.206;25.320;2023-03-17T00:29:37;6.63;;;2.80;;
73487;SDS011;61721;42.206;25.320;2023-03-17T00:35:59;5.32;;;3.03;;
73487;SDS011;61721;42.206;25.320;2023-03-17T00:53:44;5.80;;;3.03;;
73487;SDS011;61721;42.206;25.320;2023-03-17T01:03:56;6.05;;;3.38;;
73487;SDS011;61721;42.206;25.320;2023-03-17T01:40:30;5.20;;;2.95;;
73487;SDS011;61721;42.206;25.320;2023-03-17T02:31:14;5.38;;;3.45;;
73487;SDS011;61721;42.206;25.320;2023-03-17T02:37:36;5.03;;;2.88;;
73487;SDS011;61721;42.206;25.320;2023-03-17T02:43:57;5.85;;;3.35;;
73487;SDS011;61721;42.206;25.320;2023-03-17T02:54:05;5.03;;;3.08;;
73487;SDS011;61721;42.206;25.320;2023-03-17T03:12:18;5.57;;;3.00;;
73487;SDS011;61721;42.206;25.320;2023-03-17T03:22:34;5.93;;;3.58;;
73487;SDS011;61721;42.206;25.320;2023-03-17T03:29:00;5.22;;;3.15;;
73487;SDS011;61721;42.206;25.320;2023-03-17T03:39:11;4.60;;;2.78;;
73487;SDS011;61721;42.206;25.320;2023-03-17T03:53:08;6.60;;;3.45;;
73487;SDS011;61721;42.206;25.320;2023-03-17T03:59:29;6.63;;;3.35;;
73487;SDS011;61721;42.206;25.320;2023-03-17T04:05:50;6.00;;;3.10;;
73487;SDS011;61721;42.206;25.320;2023-03-17T04:12:39;5.75;;;3.30;;
73487;SDS011;61721;42.206;25.320;2023-03-17T04:22:48;5.32;;;3.08;;
73487;SDS011;61721;42.206;25.320;2023-03-17T04:29:11;6.55;;;3.83;;
73487;SDS011;61721;42.206;25.320;2023-03-17T04:39:21;5.47;;;3.30;;
73487;SDS011;61721;42.206;25.320;2023-03-17T04:53:19;7.78;;;4.13;;
73487;SDS011;61721;42.206;25.320;2023-03-17T04:59:41;5.95;;;3.83;;
73487;SDS011;61721;42.206;25.320;2023-03-17T05:06:04;6.45;;;3.88;;
73487;SDS011;61721;42.206;25.320;2023-03-17T05:12:29;5.65;;;3.25;;
73487;SDS011;61721;42.206;25.320;2023-03-17T05:26:25;5.43;;;3.65;;
73487;SDS011;61721;42.206;25.320;2023-03-17T05:32:47;4.78;;;3.03;;
73487;SDS011;61721;42.206;25.320;2023-03-17T05:39:11;5.38;;;2.83;;
73487;SDS011;61721;42.206;25.320;2023-03-17T05:45:34;4.88;;;2.40;;
73487;SDS011;61721;42.206;25.320;2023-03-17T05:51:55;5.47;;;2.80;;
73487;SDS011;61721;42.206;25.320;2023-03-17T06:06:27;6.40;;;2.63;;
73487;SDS011;61721;42.206;25.320;2023-03-17T06:13:16;7.20;;;2.20;;
73487;SDS011;61721;42.206;25.320;2023-03-17T06:19:39;5.90;;;3.10;;
73487;SDS011;61721;42.206;25.320;2023-03-17T06:29:48;4.97;;;2.85;;
73487;SDS011;61721;42.206;25.320;2023-03-17T06:36:10;7.93;;;3.60;;
73487;SDS011;61721;42.206;25.320;2023-03-17T06:42:31;5.05;;;2.78;;
73487;SDS011;61721;42.206;25.320;2023-03-17T06:48:56;4.07;;;2.10;;
73487;SDS011;61721;42.206;25.320;2023-03-17T06:59:06;4.88;;;1.73;;
73487;SDS011;61721;42.206;25.320;2023-03-17T07:13:03;3.33;;;1.50;;
73487;SDS011;61721;42.206;25.320;2023-03-17T07:19:26;3.13;;;1.30;;
73487;SDS011;61721;42.206;25.320;2023-03-17T07:25:48;3.55;;;1.42;;
73487;SDS011;61721;42.206;25.320;2023-03-17T07:35:59;5.25;;;1.60;;
73487;SDS011;61721;42.206;25.320;2023-03-17T07:49:57;3.05;;;1.20;;
73487;SDS011;61721;42.206;25.320;2023-03-17T07:56:21;3.40;;;1.70;;
73487;SDS011;61721;42.206;25.320;2023-03-17T08:06:30;3.28;;;1.27;;
73487;SDS011;61721;42.206;25.320;2023-03-17T08:12:52;7.63;;;2.17;;
73487;SDS011;61721;42.206;25.320;2023-03-17T08:19:15;5.68;;;2.15;;
73487;SDS011;61721;42.206;25.320;2023-03-17T08:55:55;4.55;;;1.50;;
73487;SDS011;61721;42.206;25.320;2023-03-17T09:19:38;2.33;;;0.80;;
73487;SDS011;61721;42.206;25.320;2023-03-17T10:00:13;7.88;;;2.88;;
73487;SDS011;61721;42.206;25.320;2023-03-17T10:15:24;2.63;;;1.10;;
73487;SDS011;61721;42.206;25.320;2023-03-17T10:40:47;3.30;;;1.17;;
73487;SDS011;61721;42.206;25.320;2023-03-17T10:47:30;2.40;;;1.10;;
73487;SDS011;61721;42.206;25.320;2023-03-17T10:57:37;3.63;;;1.30;;
73487;SDS011;61721;42.206;25.320;2023-03-17T11:11:21;5.32;;;2.10;;
73487;SDS011;61721;42.206;25.320;2023-03-17T11:25:30;3.88;;;1.70;;
73487;SDS011;61721;42.206;25.320;2023-03-17T11:35:48;6.53;;;2.00;;
73487;SDS011;61721;42.206;25.320;2023-03-17T12:01:13;3.42;;;1.52;;
73487;SDS011;61721;42.206;25.320;2023-03-17T12:14:55;3.60;;;1.80;;
73487;SDS011;61721;42.206;25.320;2023-03-17T12:21:23;3.70;;;1.75;;
73487;SDS011;61721;42.206;25.320;2023-03-17T12:27:57;3.63;;;1.90;;
73487;SDS011;61721;42.206;25.320;2023-03-17T12:42:04;7.47;;;1.70;;
73487;SDS011;61721;42.206;25.320;2023-03-17T12:48:49;4.28;;;1.98;;
73487;SDS011;61721;42.206;25.320;2023-03-17T13:03:10;3.25;;;1.50;;
73487;SDS011;61721;42.206;25.320;2023-03-17T13:24:53;3.10;;;1.50;;
73487;SDS011;61721;42.206;25.320;2023-03-17T13:31:34;5.55;;;2.10;;
73487;SDS011;61721;42.206;25.320;2023-03-17T13:52:37;4.07;;;1.40;;
73487;SDS011;61721;42.206;25.320;2023-03-17T13:59:05;3.28;;;1.58;;
73487;SDS011;61721;42.206;25.320;2023-03-17T14:09:32;3.42;;;1.45;;
73487;SDS011;61721;42.206;25.320;2023-03-17T14:20:52;4.38;;;2.03;;
73487;SDS011;61721;42.206;25.320;2023-03-17T14:34:59;4.15;;;1.60;;
73487;SDS011;61721;42.206;25.320;2023-03-17T14:48:56;6.47;;;2.10;;
73487;SDS011;61721;42.206;25.320;2023-03-17T14:55:26;5.15;;;2.28;;
73487;SDS011;61721;42.206;25.320;2023-03-17T15:01:52;6.43;;;1.90;;
73487;SDS011;61721;42.206;25.320;2023-03-17T15:12:04;4.00;;;1.75;;
73487;SDS011;61721;42.206;25.320;2023-03-17T15:22:39;5.15;;;1.73;;
73487;SDS011;61721;42.206;25.320;2023-03-17T15:40:35;3.15;;;1.25;;
73487;SDS011;61721;42.206;25.320;2023-03-17T15:50:44;5.38;;;2.03;;
73487;SDS011;61721;42.206;25.320;2023-03-17T15:57:09;3.10;;;1.42;;
73487;SDS011;61721;42.206;25.320;2023-03-17T16:30:08;6.25;;;2.97;;
73487;SDS011;61721;42.206;25.320;2023-03-17T16:36:35;6.80;;;3.42;;
73487;SDS011;61721;42.206;25.320;2023-03-17T16:58:13;7.15;;;2.80;;
73487;SDS011;61721;42.206;25.320;2023-03-17T17:08:24;4.70;;;2.30;;
73487;SDS011;61721;42.206;25.320;2023-03-17T17:29:50;7.18;;;3.63;;
73487;SDS011;61721;42.206;25.320;2023-03-17T17:36:10;7.53;;;3.85;;
73487;SDS011;61721;42.206;25.320;2023-03-17T17:50:15;6.38;;;3.15;;
73487;SDS011;61721;42.206;25.320;2023-03-17T17:53:10;7.38;;;3.55;;
73487;SDS011;61721;42.206;25.320;2023-03-17T18:00:11;4.95;;;2.25;;
73487;SDS011;61721;42.206;25.320;2023-03-17T18:33:11;5.18;;;2.67;;
73487;SDS011;61721;42.206;25.320;2023-03-17T18:39:35;3.88;;;2.10;;
73487;SDS011;61721;42.206;25.320;2023-03-17T18:45:57;5.55;;;2.20;;
73487;SDS011;61721;42.206;25.320;2023-03-17T18:59:49;4.85;;;2.60;;
73487;SDS011;61721;42.206;25.320;2023-03-17T19:06:13;5.88;;;3.05;;
73487;SDS011;61721;42.206;25.320;2023-03-17T19:16:22;5.47;;;2.72;;
73487;SDS011;61721;42.206;25.320;2023-03-17T19:26:34;5.22;;;2.80;;
73487;SDS011;61721;42.206;25.320;2023-03-17T19:32:57;4.38;;;2.50;;
73487;SDS011;61721;42.206;25.320;2023-03-17T19:58:44;4.68;;;2.22;;
73487;SDS011;61721;42.206;25.320;2023-03-17T20:05:06;7.03;;;3.97;;
73487;SDS011;61721;42.206;25.320;2023-03-17T20:11:27;4.97;;;2.92;;
73487;SDS011;61721;42.206;25.320;2023-03-17T20:21:35;7.40;;;3.95;;
73487;SDS011;61721;42.206;25.320;2023-03-17T20:35:32;5.45;;;2.67;;
73487;SDS011;61721;42.206;25.320;2023-03-17T20:53:27;7.35;;;3.60;;
73487;SDS011;61721;42.206;25.320;2023-03-17T21:08:35;6.60;;;3.45;;
73487;SDS011;61721;42.206;25.320;2023-03-17T21:22:32;4.38;;;2.20;;
73487;SDS011;61721;42.206;25.320;2023-03-17T21:28:56;4.93;;;2.38;;
73487;SDS011;61721;42.206;25.320;2023-03-17T21:35:17;8.48;;;4.13;;
73487;SDS011;61721;42.206;25.320;2023-03-17T22:01:21;6.47;;;3.08;;
73487;SDS011;61721;42.206;25.320;2023-03-17T22:14:12;7.82;;;3.72;;
73487;SDS011;61721;42.206;25.320;2023-03-17T22:20:41;6.47;;;3.20;;
73487;SDS011;61721;42.206;25.320;2023-03-17T22:26:45;5.30;;;3.10;;
73487;SDS011;61721;42.206;25.320;2023-03-17T22:33:06;5.88;;;2.92;;
73487;SDS011;61721;42.206;25.320;2023-03-17T22:39:29;6.70;;;3.35;;
73487;SDS011;61721;42.206;25.320;2023-03-17T22:45:50;8.02;;;3.53;;
73487;SDS011;61721;42.206;25.320;2023-03-17T22:52:11;8.80;;;4.60;;
73487;SDS011;61721;42.206;25.320;2023-03-17T22:55:07;7.38;;;3.60;;
73487;SDS011;61721;42.206;25.320;2023-03-17T23:12:09;10.02;;;3.97;;
73487;SDS011;61721;42.206;25.320;2023-03-17T23:22:18;8.68;;;4.05;;
73487;SDS011;61721;42.206;25.320;2023-03-17T23:28:42;9.57;;;4.40;;
73487;SDS011;61721;42.206;25.320;2023-03-17T23:38:51;7.65;;;4.30;;
73487;SDS011;61721;42.206;25.320;2023-03-17T23:52:51;6.43;;;3.05;;
